createdAt,value
2023-02-26T00:00:25.256Z,85.88
2023-02-26T00:02:53.090Z,86.32
2023-02-26T00:05:20.915Z,87.67
2023-02-26T00:07:48.660Z,87.46
2023-02-26T00:10:17.817Z,86.61
2023-02-26T00:12:46.588Z,86.87
2023-02-26T00:15:17.739Z,86.44
2023-02-26T00:17:53.022Z,86.49
2023-02-26T00:20:21.021Z,86.62
2023-02-26T00:22:49.337Z,86.21
2023-02-26T00:25:18.547Z,86.16
2023-02-26T00:27:46.813Z,87.40
2023-02-26T00:30:15.032Z,86.96
2023-02-26T00:32:43.696Z,86.37
2023-02-26T00:35:15.791Z,85.76
2023-02-26T00:37:59.035Z,86.27
2023-02-26T00:40:35.978Z,86.04
2023-02-26T00:43:04.887Z,85.82
2023-02-26T00:45:35.539Z,86.60
2023-02-26T00:48:33.442Z,86.16
2023-02-26T00:51:13.338Z,85.46
2023-02-26T00:53:48.028Z,86.08
2023-02-26T00:56:17.136Z,85.42
2023-02-26T00:58:44.811Z,85.73
2023-02-26T01:01:12.600Z,85.13
2023-02-26T01:03:40.857Z,85.03
2023-02-26T01:06:12.666Z,85.39
2023-02-26T01:08:47.804Z,84.90
2023-02-26T01:11:17.437Z,84.11
2023-02-26T01:13:45.636Z,86.57
2023-02-26T01:16:18.895Z,85.57
2023-02-26T01:18:51.437Z,85.00
2023-02-26T01:21:27.934Z,85.81
2023-02-26T01:23:55.775Z,84.62
2023-02-26T01:26:28.392Z,85.33
2023-02-26T01:28:57.209Z,86.82
2023-02-26T01:31:36.260Z,86.60
2023-02-26T01:34:11.023Z,85.40
2023-02-26T01:36:44.968Z,84.43
2023-02-26T01:39:21.713Z,84.71
2023-02-26T01:41:53.204Z,85.86
2023-02-26T01:44:27.627Z,85.99
2023-02-26T01:47:07.459Z,85.35
2023-02-26T01:49:35.685Z,85.23
2023-02-26T01:52:05.292Z,85.21
2023-02-26T01:54:35.767Z,84.51
2023-02-26T01:57:08.767Z,84.65
2023-02-26T01:59:40.670Z,84.01
2023-02-26T02:02:11.045Z,84.03
2023-02-26T02:04:39.424Z,84.65
2023-02-26T02:07:08.183Z,83.37
2023-02-26T02:09:36.017Z,83.16
2023-02-26T02:12:14.516Z,82.91
2023-02-26T02:14:54.939Z,84.68
2023-02-26T02:17:30.796Z,83.33
2023-02-26T02:20:27.554Z,85.30
2023-02-26T02:23:18.632Z,84.58
2023-02-26T02:26:15.454Z,86.20
2023-02-26T02:29:03.804Z,84.90
2023-02-26T02:31:35.998Z,85.07
2023-02-26T02:34:10.106Z,83.16
2023-02-26T02:36:46.059Z,83.43
2023-02-26T02:39:19.513Z,83.81
2023-02-26T02:41:51.196Z,83.39
2023-02-26T02:44:22.763Z,84.08
2023-02-26T02:46:54.805Z,83.42
2023-02-26T02:49:27.954Z,84.18
2023-02-26T02:52:00.288Z,83.29
2023-02-26T02:54:32.452Z,83.99
2023-02-26T02:57:05.529Z,84.57
2023-02-26T02:59:37.283Z,83.01
2023-02-26T03:02:17.697Z,81.47
2023-02-26T03:04:46.257Z,81.79
2023-02-26T03:07:14.076Z,82.05
2023-02-26T03:09:42.193Z,80.63
2023-02-26T03:12:09.923Z,81.82
2023-02-26T03:14:38.220Z,83.16
2023-02-26T03:17:24.260Z,81.65
2023-02-26T03:20:07.376Z,82.69
2023-02-26T03:22:42.188Z,82.57
2023-02-26T03:25:15.446Z,81.74
2023-02-26T03:27:50.527Z,83.24
2023-02-26T03:30:23.642Z,82.13
2023-02-26T03:33:01.855Z,82.37
2023-02-26T03:35:37.030Z,84.24
2023-02-26T03:38:10.657Z,82.42
2023-02-26T03:40:44.584Z,81.59
2023-02-26T03:43:18.384Z,83.71
2023-02-26T03:45:50.540Z,82.94
2023-02-26T03:48:25.854Z,81.37
2023-02-26T03:50:56.853Z,84.37
2023-02-26T03:53:28.181Z,83.24
2023-02-26T03:56:01.377Z,83.65
2023-02-26T03:58:29.354Z,84.58
2023-02-26T04:01:02.572Z,84.26
2023-02-26T04:03:37.603Z,83.98
2023-02-26T04:06:06.283Z,83.16
2023-02-26T04:08:34.134Z,82.47
2023-02-26T04:11:07.849Z,81.50
2023-02-26T04:13:36.210Z,81.83
2023-02-26T04:16:04.867Z,83.54
2023-02-26T04:18:34.017Z,82.06
2023-02-26T04:21:01.997Z,82.93
2023-02-26T04:23:29.903Z,80.42
2023-02-26T04:25:57.631Z,83.53
2023-02-26T04:28:25.443Z,82.06
2023-02-26T04:30:53.204Z,82.31
2023-02-26T04:33:20.999Z,81.23
2023-02-26T04:35:50.104Z,81.03
2023-02-26T04:38:17.834Z,82.65
2023-02-26T04:40:45.916Z,80.08
2023-02-26T04:43:13.663Z,79.11
2023-02-26T04:45:41.364Z,79.36
2023-02-26T04:48:09.122Z,79.07
2023-02-26T04:50:36.826Z,80.37
2023-02-26T04:53:06.144Z,79.10
2023-02-26T04:55:35.045Z,79.01
2023-02-26T04:58:02.914Z,79.15
2023-02-26T05:00:30.772Z,78.79
2023-02-26T05:02:58.490Z,77.90
2023-02-26T05:05:26.422Z,78.82
2023-02-26T05:07:56.744Z,79.57
2023-02-26T05:10:26.304Z,80.49
2023-02-26T05:12:54.108Z,80.90
2023-02-26T05:15:21.812Z,80.52
2023-02-26T05:17:49.568Z,81.41
2023-02-26T05:20:17.627Z,81.67
2023-02-26T05:22:45.346Z,83.01
2023-02-26T05:25:13.568Z,80.53
2023-02-26T05:27:43.747Z,81.22
2023-02-26T05:30:14.649Z,81.31
2023-02-26T05:32:42.405Z,81.03
2023-02-26T05:35:10.796Z,80.59
2023-02-26T05:37:38.920Z,80.18
2023-02-26T05:40:10.475Z,79.88
2023-02-26T05:42:38.364Z,79.04
2023-02-26T05:45:08.965Z,79.24
2023-02-26T05:47:37.350Z,79.10
2023-02-26T05:50:06.400Z,77.84
2023-02-26T05:52:34.293Z,77.51
2023-02-26T05:55:02.141Z,78.36
2023-02-26T05:57:29.971Z,78.19
2023-02-26T05:59:57.725Z,78.08
2023-02-26T06:02:27.039Z,78.46
2023-02-26T06:04:54.748Z,76.63
2023-02-26T06:07:22.501Z,76.37
2023-02-26T06:09:50.391Z,75.94
2023-02-26T06:12:18.152Z,74.84
2023-02-26T06:14:45.849Z,75.28
2023-02-26T06:17:13.615Z,74.89
2023-02-26T06:19:42.737Z,75.08
2023-02-26T06:22:10.452Z,74.33
2023-02-26T06:24:38.201Z,73.80
2023-02-26T06:27:05.927Z,73.63
2023-02-26T06:29:34.437Z,74.05
2023-02-26T06:32:02.262Z,73.75
2023-02-26T06:34:30.023Z,73.54
2023-02-26T06:36:59.280Z,74.34
2023-02-26T06:39:27.082Z,74.28
2023-02-26T06:41:54.875Z,73.48
2023-02-26T06:44:22.759Z,73.72
2023-02-26T06:46:50.498Z,73.55
2023-02-26T06:49:18.560Z,72.77
2023-02-26T06:51:46.316Z,72.37
2023-02-26T06:54:15.429Z,72.59
2023-02-26T06:56:43.196Z,72.22
2023-02-26T06:59:10.943Z,73.11
2023-02-26T07:01:39.177Z,71.89
2023-02-26T07:04:06.927Z,71.93
2023-02-26T07:06:34.654Z,71.96
2023-02-26T07:09:02.495Z,72.25
2023-02-26T07:11:31.685Z,71.13
2023-02-26T07:13:59.435Z,71.83
2023-02-26T07:16:27.566Z,71.18
2023-02-26T07:18:55.505Z,72.91
2023-02-26T07:21:23.219Z,71.68
2023-02-26T07:23:50.922Z,70.81
2023-02-26T07:26:18.732Z,69.76
2023-02-26T07:28:47.821Z,69.51
2023-02-26T07:31:16.608Z,69.35
2023-02-26T07:33:44.481Z,69.01
2023-02-26T07:36:12.208Z,68.63
2023-02-26T07:38:39.999Z,69.43
2023-02-26T07:41:07.823Z,69.69
2023-02-26T07:43:35.848Z,69.20
2023-02-26T07:46:05.855Z,68.30
2023-02-26T07:48:33.636Z,68.33
2023-02-26T07:51:01.474Z,68.87
2023-02-26T07:53:29.249Z,68.89
2023-02-26T07:55:57.115Z,67.82
2023-02-26T07:58:24.854Z,67.95
2023-02-26T08:00:53.368Z,67.42
2023-02-26T08:03:22.558Z,66.93
2023-02-26T08:05:50.281Z,66.19
2023-02-26T08:08:20.943Z,66.32
2023-02-26T08:10:48.676Z,65.77
2023-02-26T08:13:16.383Z,66.06
2023-02-26T08:15:44.924Z,65.47
2023-02-26T08:18:13.376Z,66.25
2023-02-26T08:20:42.496Z,65.31
2023-02-26T08:23:10.225Z,65.40
2023-02-26T08:25:38.059Z,65.12
2023-02-26T08:28:06.267Z,63.80
2023-02-26T08:30:34.015Z,65.86
2023-02-26T08:33:01.804Z,65.49
2023-02-26T08:35:29.563Z,64.58
2023-02-26T08:37:58.767Z,64.03
2023-02-26T08:40:26.571Z,63.63
2023-02-26T08:42:54.301Z,64.14
2023-02-26T08:45:21.989Z,63.16
2023-02-26T08:47:56.597Z,62.72
2023-02-26T08:50:25.004Z,62.83
2023-02-26T08:52:52.840Z,62.07
2023-02-26T08:55:22.063Z,61.96
2023-02-26T08:57:49.828Z,61.65
2023-02-26T09:00:18.597Z,61.12
2023-02-26T09:02:47.409Z,60.93
2023-02-26T09:05:15.870Z,60.86
2023-02-26T09:07:44.577Z,60.30
2023-02-26T09:10:13.840Z,60.08
2023-02-26T09:12:42.952Z,59.62
2023-02-26T09:15:12.448Z,59.35
2023-02-26T09:17:40.368Z,59.45
2023-02-26T09:20:09.981Z,58.78
2023-02-26T09:22:38.339Z,58.81
2023-02-26T09:25:07.449Z,58.11
2023-02-26T09:27:36.393Z,58.32
2023-02-26T09:30:06.792Z,58.26
2023-02-26T09:32:34.750Z,59.30
2023-02-26T09:35:02.798Z,58.06
2023-02-26T09:37:30.554Z,58.18
2023-02-26T09:39:58.307Z,57.05
2023-02-26T09:42:39.482Z,56.73
2023-02-26T09:45:15.387Z,56.49
2023-02-26T09:47:47.768Z,55.73
2023-02-26T09:50:20.424Z,56.06
2023-02-26T09:52:53.391Z,55.64
2023-02-26T09:55:29.373Z,55.94
2023-02-26T09:58:01.319Z,54.78
2023-02-26T10:00:36.603Z,55.06
2023-02-26T10:03:18.371Z,54.76
2023-02-26T10:06:06.985Z,54.45
2023-02-26T10:08:41.652Z,54.89
2023-02-26T10:11:14.992Z,55.14
2023-02-26T10:13:57.104Z,54.54
2023-02-26T10:16:31.617Z,55.04
2023-02-26T10:19:05.864Z,54.86
2023-02-26T10:21:39.621Z,54.95
2023-02-26T10:24:13.790Z,54.13
2023-02-26T10:26:44.688Z,53.03
2023-02-26T10:29:23.130Z,53.50
2023-02-26T10:32:07.158Z,53.71
2023-02-26T10:34:37.282Z,52.79
2023-02-26T10:37:15.032Z,51.96
2023-02-26T10:39:48.595Z,51.36
2023-02-26T10:42:18.936Z,51.62
2023-02-26T10:44:56.423Z,52.13
2023-02-26T10:47:36.682Z,51.87
2023-02-26T10:50:07.088Z,50.61
2023-02-26T10:52:37.080Z,50.29
2023-02-26T10:55:29.976Z,50.68
2023-02-26T10:58:06.657Z,50.35
2023-02-26T11:00:36.279Z,50.56
2023-02-26T11:03:07.492Z,51.24
2023-02-26T11:05:35.739Z,51.49
2023-02-26T11:08:10.430Z,51.12
2023-02-26T11:10:45.971Z,51.40
2023-02-26T11:13:13.897Z,51.80
2023-02-26T11:15:42.121Z,51.19
2023-02-26T11:18:17.782Z,52.02
2023-02-26T11:20:47.924Z,51.82
2023-02-26T11:23:19.870Z,52.43
2023-02-26T11:25:48.128Z,51.84
2023-02-26T11:28:23.437Z,52.27
2023-02-26T11:30:54.237Z,52.30
2023-02-26T11:33:28.953Z,50.93
2023-02-26T11:36:01.382Z,51.97
2023-02-26T11:38:30.079Z,52.37
2023-02-26T11:40:59.434Z,52.04
2023-02-26T11:43:34.666Z,51.13
2023-02-26T11:46:05.902Z,51.85
2023-02-26T11:48:41.673Z,52.38
2023-02-26T11:51:16.300Z,51.94
2023-02-26T11:53:54.204Z,51.74
2023-02-26T11:56:27.348Z,50.13
2023-02-26T11:58:56.430Z,51.20
2023-02-26T12:01:29.362Z,50.53
2023-02-26T12:04:03.401Z,49.76
2023-02-26T12:06:31.360Z,49.25
2023-02-26T12:09:00.128Z,50.29
2023-02-26T12:11:44.265Z,50.77
2023-02-26T12:14:32.525Z,50.12
2023-02-26T12:17:12.971Z,50.38
2023-02-26T12:19:51.760Z,48.36
2023-02-26T12:22:37.339Z,48.82
2023-02-26T12:25:31.238Z,48.90
2023-02-26T12:28:24.612Z,48.32
2023-02-26T12:31:07.926Z,47.89
2023-02-26T12:33:45.950Z,48.98
2023-02-26T12:36:28.289Z,49.28
2023-02-26T12:39:13.350Z,48.49
2023-02-26T12:41:50.858Z,47.22
2023-02-26T12:44:30.416Z,47.23
2023-02-26T12:47:18.576Z,46.42
2023-02-26T12:50:03.429Z,46.59
2023-02-26T12:53:10.673Z,44.97
2023-02-26T12:55:46.440Z,43.78
2023-02-26T12:58:31.859Z,43.08
2023-02-26T13:01:14.681Z,42.12
2023-02-26T13:04:26.467Z,42.39
2023-02-26T13:07:10.265Z,42.95
2023-02-26T13:09:44.638Z,42.07
2023-02-26T13:12:26.039Z,41.26
2023-02-26T13:15:04.054Z,40.93
2023-02-26T13:17:41.244Z,40.34
2023-02-26T13:20:16.575Z,41.09
2023-02-26T13:22:48.595Z,41.01
2023-02-26T13:25:24.746Z,42.27
2023-02-26T13:27:55.883Z,42.04
2023-02-26T13:30:29.527Z,41.69
2023-02-26T13:32:59.302Z,40.33
2023-02-26T13:35:31.677Z,39.87
2023-02-26T13:38:02.799Z,39.91
2023-02-26T13:40:49.000Z,41.81
2023-02-26T13:43:38.004Z,39.93
2023-02-26T13:46:22.059Z,39.55
2023-02-26T13:48:57.558Z,39.82
2023-02-26T13:51:32.677Z,38.96
2023-02-26T13:54:04.401Z,39.26
2023-02-26T13:56:56.818Z,39.29
2023-02-26T13:59:54.858Z,37.28
2023-02-26T14:02:46.664Z,37.16
2023-02-26T14:06:01.191Z,36.79
2023-02-26T14:08:43.199Z,37.36
2023-02-26T14:11:41.315Z,37.46
2023-02-26T14:14:18.424Z,37.44
2023-02-26T14:16:50.723Z,36.47
2023-02-26T14:19:25.259Z,37.13
2023-02-26T14:21:57.624Z,37.47
2023-02-26T14:24:36.516Z,37.29
2023-02-26T14:27:32.457Z,37.06
2023-02-26T14:30:18.157Z,38.16
2023-02-26T14:32:50.855Z,37.32
2023-02-26T14:35:21.950Z,37.13
2023-02-26T14:37:58.958Z,36.59
2023-02-26T14:40:30.622Z,37.62
2023-02-26T14:43:01.506Z,37.18
2023-02-26T14:45:33.199Z,35.80
2023-02-26T14:48:03.022Z,36.65
2023-02-26T14:50:44.327Z,36.60
2023-02-26T14:53:32.607Z,37.09
2023-02-26T14:56:10.052Z,35.68
2023-02-26T14:58:51.444Z,34.95
2023-02-26T15:01:46.522Z,35.92
2023-02-26T15:04:47.673Z,35.48
2023-02-26T15:07:44.532Z,36.05
2023-02-26T15:10:25.922Z,36.15
2023-02-26T15:13:16.453Z,35.93
2023-02-26T15:15:54.059Z,36.25
2023-02-26T15:18:40.337Z,35.73
2023-02-26T15:21:18.944Z,34.92
2023-02-26T15:23:50.195Z,35.12
2023-02-26T15:26:23.159Z,35.15
2023-02-26T15:28:52.443Z,35.38
2023-02-26T15:31:21.964Z,35.82
2023-02-26T15:33:51.797Z,36.26
2023-02-26T15:36:24.282Z,36.31
2023-02-26T15:38:57.008Z,36.12
2023-02-26T15:41:27.261Z,36.29
2023-02-26T15:43:58.317Z,37.28
2023-02-26T15:46:31.559Z,36.69
2023-02-26T15:49:06.505Z,36.47
2023-02-26T15:51:34.840Z,34.96
2023-02-26T15:54:04.775Z,34.15
2023-02-26T15:56:36.897Z,34.33
2023-02-26T15:59:08.781Z,34.90
2023-02-26T16:01:37.208Z,36.22
2023-02-26T16:04:13.310Z,35.58
2023-02-26T16:06:43.024Z,35.93
2023-02-26T16:09:17.968Z,36.05
2023-02-26T16:11:47.592Z,36.76
2023-02-26T16:14:22.473Z,37.02
2023-02-26T16:16:52.542Z,37.41
2023-02-26T16:19:26.444Z,37.17
2023-02-26T16:21:56.374Z,36.79
2023-02-26T16:24:24.674Z,36.67
2023-02-26T16:26:58.265Z,37.49
2023-02-26T16:29:27.973Z,38.63
2023-02-26T16:31:57.818Z,38.98
2023-02-26T16:34:36.208Z,39.61
2023-02-26T16:37:25.132Z,39.66
2023-02-26T16:39:56.411Z,39.01
2023-02-26T16:42:34.803Z,39.72
2023-02-26T16:45:16.798Z,39.90
2023-02-26T16:47:46.835Z,39.57
2023-02-26T16:50:19.391Z,39.73
2023-02-26T16:52:54.446Z,39.67
2023-02-26T16:55:22.271Z,39.41
2023-02-26T16:57:50.696Z,39.95
2023-02-26T17:00:30.831Z,39.49
2023-02-26T17:03:03.791Z,40.07
2023-02-26T17:05:36.619Z,38.67
2023-02-26T17:08:09.491Z,39.81
2023-02-26T17:10:45.067Z,39.31
2023-02-26T17:13:16.628Z,39.76
2023-02-26T17:15:46.412Z,39.35
2023-02-26T17:18:14.578Z,39.18
2023-02-26T17:20:43.914Z,39.10
2023-02-26T17:23:15.276Z,38.68
2023-02-26T17:25:47.164Z,39.07
2023-02-26T17:28:21.872Z,39.04
2023-02-26T17:30:50.053Z,38.83
2023-02-26T17:33:17.831Z,38.92
2023-02-26T17:35:47.248Z,39.57
2023-02-26T17:38:16.585Z,40.19
2023-02-26T17:40:47.531Z,40.46
2023-02-26T17:43:15.495Z,40.53
2023-02-26T17:45:43.457Z,41.19
2023-02-26T17:48:14.303Z,41.45
2023-02-26T17:50:48.074Z,42.22
2023-02-26T17:53:16.159Z,42.79
2023-02-26T17:55:44.080Z,43.76
2023-02-26T17:58:16.690Z,43.91
2023-02-26T18:00:46.016Z,45.04
2023-02-26T18:03:14.012Z,45.30
2023-02-26T18:05:41.874Z,46.15
2023-02-26T18:08:21.864Z,46.33
2023-02-26T18:10:49.921Z,46.98
2023-02-26T18:13:17.984Z,47.95
2023-02-26T18:15:45.885Z,47.65
2023-02-26T18:18:15.173Z,47.59
2023-02-26T18:20:43.989Z,48.10
2023-02-26T18:23:13.881Z,48.61
2023-02-26T18:25:42.802Z,48.83
2023-02-26T18:28:15.464Z,49.21
2023-02-26T18:30:44.305Z,49.17
2023-02-26T18:33:12.216Z,48.99
2023-02-26T18:35:45.878Z,49.66
2023-02-26T18:38:15.611Z,50.06
2023-02-26T18:40:44.223Z,50.40
2023-02-26T18:43:12.678Z,51.21
2023-02-26T18:45:40.517Z,50.89
2023-02-26T18:48:09.212Z,50.97
2023-02-26T18:50:37.187Z,51.80
2023-02-26T18:53:05.346Z,51.59
2023-02-26T18:55:36.420Z,52.55
2023-02-26T18:58:05.914Z,52.79
2023-02-26T19:00:33.836Z,53.14
2023-02-26T19:03:01.696Z,53.34
2023-02-26T19:05:29.569Z,53.47
2023-02-26T19:07:57.333Z,54.14
2023-02-26T19:10:25.046Z,54.11
2023-02-26T19:12:54.223Z,54.32
2023-02-26T19:15:22.550Z,55.15
2023-02-26T19:17:50.252Z,55.50
2023-02-26T19:20:18.747Z,55.59
2023-02-26T19:22:47.095Z,56.02
2023-02-26T19:25:15.149Z,55.86
2023-02-26T19:27:42.976Z,55.67
2023-02-26T19:30:13.164Z,56.22
2023-02-26T19:32:40.961Z,55.73
2023-02-26T19:35:09.548Z,55.52
2023-02-26T19:37:37.495Z,55.72
2023-02-26T19:40:09.945Z,56.41
2023-02-26T19:42:38.034Z,56.92
2023-02-26T19:45:06.874Z,56.29
2023-02-26T19:47:36.005Z,55.30
2023-02-26T19:50:03.913Z,55.04
2023-02-26T19:52:31.800Z,54.56
2023-02-26T19:54:59.671Z,54.63
2023-02-26T19:57:28.554Z,54.36
2023-02-26T19:59:56.378Z,53.69
2023-02-26T20:02:24.299Z,53.75
2023-02-26T20:04:53.527Z,54.36
2023-02-26T20:07:21.649Z,54.03
2023-02-26T20:09:49.884Z,53.19
2023-02-26T20:12:17.687Z,53.45
2023-02-26T20:14:45.431Z,52.88
2023-02-26T20:17:13.231Z,52.50
2023-02-26T20:19:42.312Z,53.72
2023-02-26T20:22:12.204Z,53.45
2023-02-26T20:24:41.333Z,53.03
2023-02-26T20:27:09.533Z,52.95
2023-02-26T20:29:37.504Z,52.69
2023-02-26T20:32:05.996Z,52.80
2023-02-26T20:34:33.963Z,52.78
2023-02-26T20:37:01.821Z,52.74
2023-02-26T20:39:31.179Z,52.74
2023-02-26T20:41:59.520Z,53.45
2023-02-26T20:44:27.649Z,53.49
2023-02-26T20:46:55.981Z,53.67
2023-02-26T20:49:25.015Z,54.09
2023-02-26T20:51:54.669Z,53.82
2023-02-26T20:54:22.990Z,53.71
2023-02-26T20:56:53.313Z,54.20
2023-02-26T20:59:22.657Z,53.98
2023-02-26T21:01:53.893Z,53.98
2023-02-26T21:04:22.770Z,53.72
2023-02-26T21:06:53.305Z,53.68
2023-02-26T21:09:22.299Z,54.15
2023-02-26T21:11:52.989Z,54.24
2023-02-26T21:14:24.780Z,53.96
2023-02-26T21:16:54.884Z,53.43
2023-02-26T21:19:23.784Z,53.71
2023-02-26T21:21:51.929Z,53.95
2023-02-26T21:24:19.724Z,53.69
2023-02-26T21:26:47.786Z,53.59
2023-02-26T21:29:15.841Z,53.67
2023-02-26T21:31:45.109Z,53.98
2023-02-26T21:34:32.722Z,53.90
2023-02-26T21:37:01.219Z,53.57
2023-02-26T21:39:31.104Z,53.96
2023-02-26T21:42:03.506Z,54.25
2023-02-26T21:44:33.200Z,54.17
2023-02-26T21:47:03.275Z,53.75
2023-02-26T21:49:32.495Z,53.53
2023-02-26T21:52:01.007Z,53.11
2023-02-26T21:54:29.414Z,53.29
2023-02-26T21:56:57.567Z,53.51
2023-02-26T21:59:25.316Z,53.41
2023-02-26T22:01:54.104Z,53.33
2023-02-26T22:04:23.265Z,53.00
2023-02-26T22:06:51.289Z,52.80
2023-02-26T22:09:19.997Z,52.75
2023-02-26T22:11:48.082Z,52.92
2023-02-26T22:14:16.114Z,52.93
2023-02-26T22:16:43.913Z,53.39
2023-02-26T22:19:11.807Z,53.22
2023-02-26T22:21:40.914Z,52.63
2023-02-26T22:24:09.685Z,53.04
2023-02-26T22:26:37.466Z,53.33
2023-02-26T22:29:05.462Z,53.34
2023-02-26T22:31:33.657Z,53.05
2023-02-26T22:34:01.431Z,52.72
2023-02-26T22:36:31.428Z,53.21
2023-02-26T22:39:00.639Z,53.22
2023-02-26T22:41:28.396Z,53.70
2023-02-26T22:43:56.231Z,53.42
2023-02-26T22:46:25.335Z,53.22
2023-02-26T22:48:53.744Z,53.43
2023-02-26T22:51:21.565Z,53.55
2023-02-26T22:53:49.432Z,53.37
2023-02-26T22:56:18.574Z,53.62
2023-02-26T22:58:46.410Z,53.56
2023-02-26T23:01:14.217Z,53.90
2023-02-26T23:03:41.931Z,53.59
2023-02-26T23:06:09.981Z,54.50
2023-02-26T23:08:37.719Z,54.61
2023-02-26T23:11:06.788Z,54.96
2023-02-26T23:13:36.989Z,55.04
2023-02-26T23:16:08.326Z,55.04
2023-02-26T23:18:36.518Z,55.81
2023-02-26T23:21:05.259Z,55.59
2023-02-26T23:23:33.553Z,56.08
2023-02-26T23:26:01.493Z,56.13
2023-02-26T23:28:29.201Z,56.83
2023-02-26T23:30:58.422Z,57.63
2023-02-26T23:33:26.523Z,57.83
2023-02-26T23:35:54.310Z,57.89
2023-02-26T23:38:22.075Z,57.77
2023-02-26T23:40:49.841Z,58.16
2023-02-26T23:43:17.968Z,57.96
2023-02-26T23:45:45.749Z,58.20
2023-02-26T23:48:15.039Z,59.00
2023-02-26T23:50:42.831Z,58.80
2023-02-26T23:53:10.646Z,58.34
2023-02-26T23:55:38.481Z,58.97
2023-02-26T23:58:06.245Z,58.77
